Time;durP1;ratioP1;P1;durP2;ratioP2;P2;SDS_P1;SDS_P2;PMS_P1;PMS_P2;Temp;Humidity;BMP_temperature;BMP_pressure;BME280_temperature;BME280_humidity;BME280_pressure;Samples;Min_cycle;Max_cycle;Signal;HPM_P1;HPM_P2
2022/10/30 00:00:13;;;;;;;8.83;5.60;;;;;;;;;;5053010;28;20314;-45
2022/10/30 00:02:41;;;;;;;7.60;5.50;;;;;;;;;;5053334;28;20200;-45
2022/10/30 00:05:07;;;;;;;17.80;7.30;;;;;;;;;;5053203;28;20207;-45
2022/10/30 00:07:33;;;;;;;11.83;6.90;;;;;;;;;;5053551;28;20605;-46
2022/10/30 00:09:59;;;;;;;11.90;6.43;;;;;;;;;;5053088;28;20200;-46
2022/10/30 00:12:25;;;;;;;9.17;6.67;;;;;;;;;;5053396;28;20608;-45
2022/10/30 00:14:52;;;;;;;9.50;6.37;;;;;;;;;;5052947;28;20208;-45
2022/10/30 00:17:17;;;;;;;10.07;6.30;;;;;;;;;;5052613;28;20887;-45
2022/10/30 00:19:45;;;;;;;8.53;6.23;;;;;;;;;;5051412;28;20224;-45
2022/10/30 00:22:11;;;;;;;11.23;6.93;;;;;;;;;;5048480;28;20333;-45
2022/10/30 00:24:37;;;;;;;11.57;7.20;;;;;;;;;;5052575;28;20192;-45
2022/10/30 00:27:03;;;;;;;8.07;6.27;;;;;;;;;;5050759;28;20606;-45
2022/10/30 00:29:29;;;;;;;9.00;6.47;;;;;;;;;;5052884;28;20196;-45
2022/10/30 00:31:55;;;;;;;11.03;6.07;;;;;;;;;;5052211;28;20629;-45
2022/10/30 00:34:21;;;;;;;11.37;6.27;;;;;;;;;;5052504;28;20291;-46
2022/10/30 00:36:49;;;;;;;13.50;6.17;;;;;;;;;;5052433;28;20295;-45
2022/10/30 00:39:15;;;;;;;9.77;5.60;;;;;;;;;;5051332;28;20267;-45
2022/10/30 00:41:41;;;;;;;10.23;6.60;;;;;;;;;;5050349;28;20211;-46
2022/10/30 00:44:22;;;;;;;9.23;5.43;;;;;;;;;;5051643;28;20242;-46
2022/10/30 00:46:48;;;;;;;6.47;5.47;;;;;;;;;;5051758;28;20250;-45
2022/10/30 00:49:16;;;;;;;7.93;5.70;;;;;;;;;;5052194;28;20192;-45
2022/10/30 00:51:46;;;;;;;8.93;6.43;;;;;;;;;;5050356;28;20616;-45
2022/10/30 00:54:15;;;;;;;9.57;6.23;;;;;;;;;;5051455;28;20209;-45
2022/10/30 00:56:42;;;;;;;13.17;6.73;;;;;;;;;;5049943;28;20239;-46
2022/10/30 00:59:10;;;;;;;9.97;6.63;;;;;;;;;;5051607;28;20224;-46
2022/10/30 01:01:37;;;;;;;10.50;7.13;;;;;;;;;;5051636;28;20219;-45
2022/10/30 01:04:04;;;;;;;10.13;6.37;;;;;;;;;;5049909;28;20196;-45
2022/10/30 01:06:31;;;;;;;15.30;6.93;;;;;;;;;;5048767;28;20266;-45
2022/10/30 01:08:58;;;;;;;8.80;5.70;;;;;;;;;;5049288;28;20216;-45
2022/10/30 01:11:25;;;;;;;12.63;6.67;;;;;;;;;;5050948;28;20206;-46
2022/10/30 01:13:52;;;;;;;11.60;6.60;;;;;;;;;;5049546;28;20299;-45
2022/10/30 01:16:32;;;;;;;12.73;7.27;;;;;;;;;;5050742;28;20647;-46
2022/10/30 01:19:02;;;;;;;12.30;6.17;;;;;;;;;;5048605;28;20594;-45
2022/10/30 01:21:33;;;;;;;10.83;5.97;;;;;;;;;;5050577;28;20239;-45
2022/10/30 01:24:04;;;;;;;12.13;7.10;;;;;;;;;;5050665;28;20196;-45
2022/10/30 01:26:37;;;;;;;10.00;6.83;;;;;;;;;;5050355;28;20222;-45
2022/10/30 01:29:10;;;;;;;11.30;6.07;;;;;;;;;;5051398;28;20563;-45
2022/10/30 01:31:42;;;;;;;9.00;6.33;;;;;;;;;;5051502;28;20192;-45
2022/10/30 01:34:13;;;;;;;12.27;5.87;;;;;;;;;;5049294;28;20238;-45
2022/10/30 01:36:42;;;;;;;14.37;6.40;;;;;;;;;;5051370;28;20208;-45
2022/10/30 01:39:11;;;;;;;11.93;5.97;;;;;;;;;;5051163;28;20228;-45
2022/10/30 01:41:39;;;;;;;9.33;6.00;;;;;;;;;;5050589;28;20196;-45
2022/10/30 01:44:07;;;;;;;10.20;6.17;;;;;;;;;;5050899;28;20228;-45
2022/10/30 01:46:39;;;;;;;9.40;5.53;;;;;;;;;;5051279;28;20242;-45
2022/10/30 01:49:19;;;;;;;11.77;6.70;;;;;;;;;;5051153;28;20765;-45
2022/10/30 01:51:51;;;;;;;10.37;5.90;;;;;;;;;;5051120;28;20231;-46
2022/10/30 01:54:21;;;;;;;13.97;6.17;;;;;;;;;;5051147;28;20196;-45
2022/10/30 01:56:54;;;;;;;11.43;5.83;;;;;;;;;;5051169;28;20212;-45
2022/10/30 01:59:23;;;;;;;12.30;6.33;;;;;;;;;;5051025;28;20234;-45
2022/10/30 02:01:49;;;;;;;9.50;5.47;;;;;;;;;;5051086;28;20246;-45
2022/10/30 02:04:15;;;;;;;11.07;5.93;;;;;;;;;;5050840;28;20204;-45
2022/10/30 02:06:41;;;;;;;12.10;6.00;;;;;;;;;;5051184;28;20295;-45
2022/10/30 02:09:07;;;;;;;12.77;6.30;;;;;;;;;;5050845;28;20212;-44
2022/10/30 02:11:34;;;;;;;11.30;5.93;;;;;;;;;;5051079;28;20208;-44
2022/10/30 02:14:03;;;;;;;13.70;6.33;;;;;;;;;;5051126;28;20199;-44
2022/10/30 02:16:29;;;;;;;10.23;5.73;;;;;;;;;;5050869;28;20254;-45
2022/10/30 02:18:55;;;;;;;9.83;5.60;;;;;;;;;;5049037;28;20228;-45
2022/10/30 02:21:22;;;;;;;7.73;5.90;;;;;;;;;;5051000;28;20203;-45
2022/10/30 02:23:48;;;;;;;8.20;5.70;;;;;;;;;;5050697;28;20213;-45
2022/10/30 02:26:14;;;;;;;11.57;5.57;;;;;;;;;;5050702;28;20722;-45
2022/10/30 02:28:40;;;;;;;8.43;5.40;;;;;;;;;;5050641;28;20671;-46
2022/10/30 02:31:06;;;;;;;9.47;5.80;;;;;;;;;;5050477;28;20282;-45
2022/10/30 02:33:32;;;;;;;8.47;5.23;;;;;;;;;;5050130;28;20196;-45
2022/10/30 02:35:58;;;;;;;11.30;5.77;;;;;;;;;;5049795;28;20227;-45
2022/10/30 02:38:26;;;;;;;9.87;5.43;;;;;;;;;;5050723;28;20253;-45
2022/10/30 02:40:52;;;;;;;10.90;5.87;;;;;;;;;;5050679;28;20220;-45
2022/10/30 02:43:18;;;;;;;8.70;5.33;;;;;;;;;;5050425;28;20192;-45
2022/10/30 02:45:49;;;;;;;9.53;5.50;;;;;;;;;;5050646;28;20287;-45
2022/10/30 02:48:15;;;;;;;10.63;5.17;;;;;;;;;;5050575;28;20580;-45
2022/10/30 02:50:41;;;;;;;8.70;5.23;;;;;;;;;;5050593;28;20204;-46
2022/10/30 02:53:07;;;;;;;9.13;5.90;;;;;;;;;;5050623;28;20196;-45
2022/10/30 02:55:35;;;;;;;10.90;6.10;;;;;;;;;;5054339;28;20196;-45
2022/10/30 02:58:01;;;;;;;10.83;5.43;;;;;;;;;;5054091;28;20231;-45
2022/10/30 03:00:27;;;;;;;12.93;6.40;;;;;;;;;;5054086;28;20416;-45
2022/10/30 03:02:54;;;;;;;13.50;5.73;;;;;;;;;;5054035;28;20702;-45
2022/10/30 03:05:20;;;;;;;9.97;5.77;;;;;;;;;;5054020;28;20226;-46
2022/10/30 03:07:50;;;;;;;8.13;4.90;;;;;;;;;;5054194;28;20608;-46
2022/10/30 03:10:16;;;;;;;10.13;5.87;;;;;;;;;;5054049;28;20254;-46
2022/10/30 03:12:43;;;;;;;9.07;5.80;;;;;;;;;;5053985;28;20204;-46
2022/10/30 03:15:10;;;;;;;13.60;5.70;;;;;;;;;;5053859;28;20663;-45
2022/10/30 03:17:36;;;;;;;9.50;5.40;;;;;;;;;;5053913;28;20267;-45
2022/10/30 03:20:02;;;;;;;10.57;5.83;;;;;;;;;;5053910;28;20286;-45
2022/10/30 03:22:28;;;;;;;10.30;5.60;;;;;;;;;;5053841;28;20223;-44
2022/10/30 03:24:54;;;;;;;10.93;6.10;;;;;;;;;;5053711;28;20206;-45
2022/10/30 03:27:20;;;;;;;14.03;6.20;;;;;;;;;;5053465;28;20286;-45
2022/10/30 03:29:48;;;;;;;9.80;5.87;;;;;;;;;;5053610;28;20606;-45
2022/10/30 03:32:14;;;;;;;11.17;6.03;;;;;;;;;;5053369;28;20299;-46
2022/10/30 03:34:40;;;;;;;8.50;6.10;;;;;;;;;;5053580;28;20291;-44
2022/10/30 03:37:06;;;;;;;11.57;6.30;;;;;;;;;;5053406;28;20283;-45
2022/10/30 03:39:32;;;;;;;8.40;5.37;;;;;;;;;;5053168;28;20256;-45
2022/10/30 03:41:58;;;;;;;11.17;5.77;;;;;;;;;;5052974;28;20200;-45
2022/10/30 03:44:24;;;;;;;10.13;6.03;;;;;;;;;;5053206;28;20740;-45
2022/10/30 03:46:51;;;;;;;9.50;6.23;;;;;;;;;;5053294;28;20208;-45
2022/10/30 03:49:17;;;;;;;11.30;5.90;;;;;;;;;;5053115;28;20666;-45
2022/10/30 03:51:43;;;;;;;9.03;5.47;;;;;;;;;;5052971;28;20236;-45
2022/10/30 03:54:09;;;;;;;11.90;6.77;;;;;;;;;;5053039;28;20287;-45
2022/10/30 03:56:35;;;;;;;9.60;6.13;;;;;;;;;;5052967;28;20196;-45
2022/10/30 03:59:01;;;;;;;9.30;6.27;;;;;;;;;;5052888;28;20228;-45
2022/10/30 04:01:27;;;;;;;10.83;5.80;;;;;;;;;;5052885;28;20207;-44
2022/10/30 04:03:54;;;;;;;9.80;6.37;;;;;;;;;;5052475;28;20200;-45
2022/10/30 04:06:21;;;;;;;11.57;5.80;;;;;;;;;;5052302;28;20205;-44
2022/10/30 04:08:47;;;;;;;10.50;5.63;;;;;;;;;;5052919;28;20277;-45
2022/10/30 04:11:13;;;;;;;8.93;5.43;;;;;;;;;;5052906;28;20196;-45
2022/10/30 04:13:39;;;;;;;8.77;5.90;;;;;;;;;;5052806;28;20728;-44
2022/10/30 04:16:05;;;;;;;11.83;6.27;;;;;;;;;;5052794;28;20196;-46
2022/10/30 04:18:31;;;;;;;8.47;5.83;;;;;;;;;;5052796;28;20197;-46
2022/10/30 04:20:59;;;;;;;10.53;5.10;;;;;;;;;;5052788;28;20230;-46
2022/10/30 04:23:25;;;;;;;10.57;5.33;;;;;;;;;;5052746;28;20200;-45
2022/10/30 04:25:51;;;;;;;13.03;5.47;;;;;;;;;;5052001;28;20192;-46
2022/10/30 04:28:20;;;;;;;9.13;5.63;;;;;;;;;;5052260;28;20208;-45
2022/10/30 04:30:46;;;;;;;11.47;5.97;;;;;;;;;;5051329;28;20204;-45
2022/10/30 04:33:12;;;;;;;9.87;6.27;;;;;;;;;;5052229;28;20651;-44
2022/10/30 04:35:39;;;;;;;13.43;6.17;;;;;;;;;;5052418;28;20223;-45
2022/10/30 04:38:07;;;;;;;9.43;6.20;;;;;;;;;;5052247;28;20200;-45
2022/10/30 04:40:34;;;;;;;13.17;6.17;;;;;;;;;;5052223;28;20319;-45
2022/10/30 04:43:01;;;;;;;11.10;5.80;;;;;;;;;;5051817;28;20647;-45
2022/10/30 04:45:28;;;;;;;14.10;6.30;;;;;;;;;;5052109;28;20681;-44
2022/10/30 04:47:59;;;;;;;11.63;5.50;;;;;;;;;;5051897;28;20254;-45
2022/10/30 04:50:25;;;;;;;10.27;5.07;;;;;;;;;;5051908;28;20705;-46
2022/10/30 04:52:57;;;;;;;9.77;5.60;;;;;;;;;;5052124;28;20258;-45
2022/10/30 04:55:25;;;;;;;7.63;5.03;;;;;;;;;;5051993;28;20197;-45
2022/10/30 04:57:54;;;;;;;10.13;4.93;;;;;;;;;;5051924;28;20204;-45
2022/10/30 05:00:21;;;;;;;9.33;5.80;;;;;;;;;;5051688;28;20242;-44
2022/10/30 05:02:47;;;;;;;9.77;5.13;;;;;;;;;;5051781;28;20724;-44
2022/10/30 05:05:13;;;;;;;7.93;4.93;;;;;;;;;;5051580;28;20196;-44
2022/10/30 05:07:39;;;;;;;8.67;5.13;;;;;;;;;;5051619;28;20220;-44
2022/10/30 05:10:05;;;;;;;7.77;5.43;;;;;;;;;;5051649;28;20244;-44
2022/10/30 05:12:32;;;;;;;12.00;5.17;;;;;;;;;;5051788;28;20207;-44
2022/10/30 05:14:58;;;;;;;11.50;5.07;;;;;;;;;;5051565;28;20287;-45
2022/10/30 05:17:24;;;;;;;9.73;5.47;;;;;;;;;;5050780;28;20641;-44
2022/10/30 05:19:50;;;;;;;15.07;6.87;;;;;;;;;;5051629;28;20228;-44
2022/10/30 05:22:16;;;;;;;9.90;5.97;;;;;;;;;;5051338;28;20291;-45
2022/10/30 05:24:42;;;;;;;9.00;5.77;;;;;;;;;;5051389;28;20197;-45
2022/10/30 05:27:08;;;;;;;10.63;5.40;;;;;;;;;;5051350;28;20704;-44
2022/10/30 05:29:36;;;;;;;7.10;5.30;;;;;;;;;;5051234;28;20227;-44
2022/10/30 05:32:02;;;;;;;10.43;4.93;;;;;;;;;;5051337;28;20291;-45
2022/10/30 05:34:28;;;;;;;7.70;5.10;;;;;;;;;;5051454;28;20258;-44
2022/10/30 05:36:54;;;;;;;8.50;4.63;;;;;;;;;;5051264;28;20253;-44
2022/10/30 05:39:20;;;;;;;8.80;5.30;;;;;;;;;;5051048;28;20227;-44
2022/10/30 05:41:46;;;;;;;8.30;5.33;;;;;;;;;;5051144;28;20200;-44
2022/10/30 05:44:12;;;;;;;10.23;5.43;;;;;;;;;;5050928;28;20199;-44
2022/10/30 05:46:39;;;;;;;7.40;4.90;;;;;;;;;;5050847;28;20200;-44
2022/10/30 05:49:05;;;;;;;13.03;5.40;;;;;;;;;;5050937;28;20192;-44
2022/10/30 05:51:31;;;;;;;11.43;5.73;;;;;;;;;;5051068;28;20251;-44
2022/10/30 05:53:57;;;;;;;17.27;6.33;;;;;;;;;;5050985;28;20192;-45
2022/10/30 05:56:23;;;;;;;7.27;5.40;;;;;;;;;;5050824;28;20200;-44
2022/10/30 05:58:50;;;;;;;9.83;6.17;;;;;;;;;;5050858;28;20594;-44
2022/10/30 06:01:16;;;;;;;12.20;5.70;;;;;;;;;;5050546;28;20199;-44
2022/10/30 06:03:43;;;;;;;10.50;5.47;;;;;;;;;;5050806;28;20242;-44
2022/10/30 06:06:09;;;;;;;11.30;6.23;;;;;;;;;;5051043;28;20200;-44
2022/10/30 06:08:35;;;;;;;8.53;5.53;;;;;;;;;;5050863;28;20265;-44
2022/10/30 06:11:01;;;;;;;10.20;6.50;;;;;;;;;;5051091;28;20238;-44
2022/10/30 06:13:27;;;;;;;11.43;6.30;;;;;;;;;;5050764;28;20266;-44
2022/10/30 06:15:55;;;;;;;11.40;6.87;;;;;;;;;;5050935;28;20208;-44
2022/10/30 06:18:21;;;;;;;11.17;6.30;;;;;;;;;;5050814;28;20201;-44
2022/10/30 06:20:48;;;;;;;9.83;6.63;;;;;;;;;;5050562;28;20224;-44
2022/10/30 06:23:14;;;;;;;11.60;6.03;;;;;;;;;;5050793;28;20250;-44
2022/10/30 06:25:40;;;;;;;10.87;6.23;;;;;;;;;;5050712;28;20749;-44
2022/10/30 06:28:06;;;;;;;13.33;6.07;;;;;;;;;;5050683;28;20230;-44
2022/10/30 06:30:33;;;;;;;13.00;7.37;;;;;;;;;;5054817;28;20204;-44
2022/10/30 06:32:59;;;;;;;10.37;6.47;;;;;;;;;;5054551;28;20337;-44
2022/10/30 06:35:25;;;;;;;12.57;6.60;;;;;;;;;;5054734;28;20299;-45
2022/10/30 06:37:54;;;;;;;13.47;6.97;;;;;;;;;;5054567;28;20203;-44
2022/10/30 06:40:20;;;;;;;10.20;6.30;;;;;;;;;;5054271;28;20219;-46
2022/10/30 06:42:47;;;;;;;14.47;5.60;;;;;;;;;;5054353;28;20207;-44
2022/10/30 06:45:14;;;;;;;9.60;5.60;;;;;;;;;;5053976;28;20196;-44
2022/10/30 06:47:40;;;;;;;10.67;5.73;;;;;;;;;;5054600;28;20200;-45
2022/10/30 06:50:07;;;;;;;8.70;5.80;;;;;;;;;;5054212;28;20200;-45
2022/10/30 06:52:33;;;;;;;12.70;5.90;;;;;;;;;;5054240;28;20240;-45
2022/10/30 06:55:00;;;;;;;9.53;5.73;;;;;;;;;;5054089;28;20562;-45
2022/10/30 06:57:26;;;;;;;8.83;5.60;;;;;;;;;;5054225;28;20208;-45
2022/10/30 06:59:52;;;;;;;7.47;5.70;;;;;;;;;;5053891;28;20576;-45
2022/10/30 07:02:18;;;;;;;8.00;5.90;;;;;;;;;;5052182;28;20258;-45
2022/10/30 07:04:44;;;;;;;14.17;6.47;;;;;;;;;;5053638;28;20250;-45
2022/10/30 07:07:11;;;;;;;14.40;6.23;;;;;;;;;;5054118;28;20197;-45
2022/10/30 07:09:37;;;;;;;9.87;6.53;;;;;;;;;;5052717;28;20219;-45
2022/10/30 07:12:05;;;;;;;12.70;7.10;;;;;;;;;;5052776;28;20615;-44
2022/10/30 07:14:31;;;;;;;9.13;5.87;;;;;;;;;;5052959;28;20209;-45
2022/10/30 07:16:57;;;;;;;11.60;5.33;;;;;;;;;;5052971;28;20189;-45
2022/10/30 07:19:23;;;;;;;11.37;6.30;;;;;;;;;;5052637;28;21298;-45
2022/10/30 07:21:49;;;;;;;10.50;5.67;;;;;;;;;;5053840;28;20240;-44
2022/10/30 07:24:15;;;;;;;10.10;5.33;;;;;;;;;;5053369;28;20207;-45
2022/10/30 07:26:41;;;;;;;9.53;5.90;;;;;;;;;;5051339;28;20238;-45
2022/10/30 07:29:09;;;;;;;16.17;5.70;;;;;;;;;;5053353;28;20223;-45
2022/10/30 07:31:35;;;;;;;11.47;5.40;;;;;;;;;;5053910;28;20207;-45
2022/10/30 07:34:01;;;;;;;11.60;6.10;;;;;;;;;;5053830;28;20291;-45
2022/10/30 07:36:27;;;;;;;7.90;5.33;;;;;;;;;;5052024;28;20216;-45
2022/10/30 07:38:53;;;;;;;13.60;5.17;;;;;;;;;;5053979;28;20611;-45
2022/10/30 07:41:19;;;;;;;8.93;4.70;;;;;;;;;;5050405;28;20220;-45
2022/10/30 07:43:45;;;;;;;13.17;4.60;;;;;;;;;;5053126;28;20662;-45
2022/10/30 07:46:13;;;;;;;10.70;5.07;;;;;;;;;;5053071;28;20231;-45
2022/10/30 07:48:39;;;;;;;7.13;4.50;;;;;;;;;;5056485;28;20204;-45
2022/10/30 07:51:06;;;;;;;10.93;5.13;;;;;;;;;;5063279;28;20278;-45
2022/10/30 07:53:32;;;;;;;9.47;4.60;;;;;;;;;;5062640;28;20197;-45
2022/10/30 07:55:58;;;;;;;9.87;3.87;;;;;;;;;;5060289;28;20195;-45
2022/10/30 07:58:27;;;;;;;6.67;4.60;;;;;;;;;;5053348;28;20212;-45
2022/10/30 08:00:53;;;;;;;10.70;4.77;;;;;;;;;;5050468;28;20244;-46
2022/10/30 08:03:21;;;;;;;12.30;4.13;;;;;;;;;;5053240;28;20702;-45
2022/10/30 08:05:47;;;;;;;15.43;8.63;;;;;;;;;;5053320;28;20208;-45
2022/10/30 08:08:13;;;;;;;14.20;7.53;;;;;;;;;;5050629;28;20220;-46
2022/10/30 08:10:39;;;;;;;10.80;6.43;;;;;;;;;;5053554;28;20275;-46
2022/10/30 08:13:05;;;;;;;9.90;4.60;;;;;;;;;;5053451;28;20752;-46
2022/10/30 08:15:31;;;;;;;9.17;4.43;;;;;;;;;;5053329;28;20368;-46
2022/10/30 08:17:57;;;;;;;9.43;4.50;;;;;;;;;;5052748;28;20205;-46
2022/10/30 08:20:25;;;;;;;7.13;3.80;;;;;;;;;;5052989;28;20224;-46
2022/10/30 08:22:52;;;;;;;9.47;3.90;;;;;;;;;;5053459;28;20208;-46
2022/10/30 08:25:19;;;;;;;7.37;4.03;;;;;;;;;;5053070;28;20200;-46
2022/10/30 08:27:50;;;;;;;7.77;3.83;;;;;;;;;;5052938;28;20720;-45
2022/10/30 08:30:16;;;;;;;9.47;4.10;;;;;;;;;;5052440;28;20220;-47
2022/10/30 08:32:42;;;;;;;8.67;3.87;;;;;;;;;;5052566;28;20202;-46
2022/10/30 08:35:08;;;;;;;9.13;4.17;;;;;;;;;;5052362;28;20244;-46
2022/10/30 08:37:36;;;;;;;7.73;3.87;;;;;;;;;;5052467;28;20248;-45
2022/10/30 08:40:02;;;;;;;11.00;4.03;;;;;;;;;;5050629;28;20251;-46
2022/10/30 08:42:28;;;;;;;10.33;4.20;;;;;;;;;;5051991;28;20257;-46
2022/10/30 08:44:54;;;;;;;8.90;3.97;;;;;;;;;;5049796;28;20246;-46
2022/10/30 08:47:20;;;;;;;8.70;4.47;;;;;;;;;;5051158;28;20200;-45
2022/10/30 08:49:46;;;;;;;10.33;4.57;;;;;;;;;;5052449;28;20197;-46
2022/10/30 08:52:12;;;;;;;9.10;4.30;;;;;;;;;;5051918;28;20271;-46
2022/10/30 08:54:40;;;;;;;10.10;3.90;;;;;;;;;;5052451;28;20231;-46
2022/10/30 08:57:06;;;;;;;17.63;6.17;;;;;;;;;;5052448;28;20290;-45
2022/10/30 08:59:32;;;;;;;6.53;3.90;;;;;;;;;;5052132;28;20310;-46
2022/10/30 09:01:58;;;;;;;9.53;4.00;;;;;;;;;;5052286;28;20196;-47
2022/10/30 09:04:24;;;;;;;8.87;3.93;;;;;;;;;;5052041;28;20299;-44
2022/10/30 09:06:50;;;;;;;7.90;3.57;;;;;;;;;;5052223;28;20200;-46
2022/10/30 09:09:16;;;;;;;8.50;3.93;;;;;;;;;;5051766;28;20224;-46
2022/10/30 09:11:43;;;;;;;8.80;4.43;;;;;;;;;;5052145;28;20253;-46
2022/10/30 09:14:09;;;;;;;7.63;4.27;;;;;;;;;;5052071;28;20199;-46
2022/10/30 09:16:35;;;;;;;6.23;3.47;;;;;;;;;;5051979;28;20557;-46
2022/10/30 09:19:01;;;;;;;11.07;4.23;;;;;;;;;;5051908;28;20299;-46
2022/10/30 09:21:27;;;;;;;9.63;3.83;;;;;;;;;;5051768;28;20235;-46
2022/10/30 09:23:53;;;;;;;10.20;3.70;;;;;;;;;;5051747;28;20199;-47
2022/10/30 09:26:19;;;;;;;10.07;4.23;;;;;;;;;;5051679;28;20210;-46
2022/10/30 09:28:47;;;;;;;12.57;4.87;;;;;;;;;;5051864;28;20209;-45
2022/10/30 09:31:13;;;;;;;11.10;4.00;;;;;;;;;;5051605;28;20218;-46
2022/10/30 09:33:39;;;;;;;11.10;4.70;;;;;;;;;;5051625;28;20196;-46
2022/10/30 09:36:05;;;;;;;9.60;3.97;;;;;;;;;;5051614;28;20198;-45
2022/10/30 09:38:31;;;;;;;11.40;4.50;;;;;;;;;;5051374;28;20241;-46
2022/10/30 09:41:09;;;;;;;9.20;4.00;;;;;;;;;;5051557;28;20262;-45
2022/10/30 09:43:39;;;;;;;11.67;4.77;;;;;;;;;;5051721;28;20237;-45
2022/10/30 09:46:13;;;;;;;20.70;12.30;;;;;;;;;;5051746;28;20206;-45
2022/10/30 09:48:48;;;;;;;13.07;4.57;;;;;;;;;;5051710;28;20230;-46
2022/10/30 09:51:21;;;;;;;15.43;4.50;;;;;;;;;;5051179;28;20317;-46
2022/10/30 09:53:51;;;;;;;8.03;3.90;;;;;;;;;;5051517;28;20203;-46
2022/10/30 09:56:22;;;;;;;6.63;3.60;;;;;;;;;;5051248;28;20284;-46
2022/10/30 09:58:57;;;;;;;12.27;4.00;;;;;;;;;;5051351;28;20208;-46
2022/10/30 10:01:27;;;;;;;11.87;4.40;;;;;;;;;;5051244;28;20237;-46
2022/10/30 10:03:59;;;;;;;12.13;4.63;;;;;;;;;;5050644;28;20205;-46
2022/10/30 10:06:25;;;;;;;9.20;4.37;;;;;;;;;;5051069;28;20616;-46
2022/10/30 10:08:54;;;;;;;12.57;4.07;;;;;;;;;;5051146;28;20216;-46
2022/10/30 10:11:21;;;;;;;9.90;4.83;;;;;;;;;;5050920;28;20656;-46
2022/10/30 10:13:49;;;;;;;13.07;4.60;;;;;;;;;;5051174;28;20292;-46
2022/10/30 10:16:19;;;;;;;11.50;5.03;;;;;;;;;;5051132;28;20197;-46
2022/10/30 10:18:47;;;;;;;13.43;4.67;;;;;;;;;;5051265;28;20250;-47
2022/10/30 10:21:18;;;;;;;9.87;4.77;;;;;;;;;;5050862;28;20227;-46
2022/10/30 10:23:47;;;;;;;14.03;4.47;;;;;;;;;;5050991;28;20568;-46
2022/10/30 10:26:20;;;;;;;9.37;4.63;;;;;;;;;;5050917;28;20197;-46
2022/10/30 10:28:50;;;;;;;9.07;4.50;;;;;;;;;;5051111;28;20199;-47
2022/10/30 10:31:23;;;;;;;9.07;4.10;;;;;;;;;;5050906;28;20196;-46
2022/10/30 10:33:59;;;;;;;11.00;4.40;;;;;;;;;;5051352;28;20207;-46
2022/10/30 10:36:30;;;;;;;10.90;4.33;;;;;;;;;;5051064;28;20207;-46
2022/10/30 10:39:05;;;;;;;12.00;4.40;;;;;;;;;;5049454;28;20261;-46
2022/10/30 10:41:39;;;;;;;9.10;4.07;;;;;;;;;;5050612;28;20227;-46
2022/10/30 10:44:15;;;;;;;10.17;4.50;;;;;;;;;;5047913;28;20251;-46
2022/10/30 10:46:52;;;;;;;8.97;4.30;;;;;;;;;;5051021;28;20206;-46
2022/10/30 10:49:26;;;;;;;12.02;4.10;;;;;;;;;;5049102;28;20550;-47
2022/10/30 10:51:53;;;;;;;13.63;4.43;;;;;;;;;;5050652;28;20243;-46
2022/10/30 10:54:23;;;;;;;10.77;4.72;;;;;;;;;;5049809;28;20409;-46
2022/10/30 10:56:50;;;;;;;12.13;4.50;;;;;;;;;;5050976;28;20214;-46
2022/10/30 10:59:18;;;;;;;11.87;4.10;;;;;;;;;;5050767;28;20281;-46
2022/10/30 11:01:48;;;;;;;10.27;4.53;;;;;;;;;;5046524;28;20405;-46
2022/10/30 11:04:18;;;;;;;12.45;4.60;;;;;;;;;;5048857;28;20397;-47
2022/10/30 11:06:48;;;;;;;11.23;4.67;;;;;;;;;;5049682;28;20199;-46
2022/10/30 11:09:15;;;;;;;9.07;4.77;;;;;;;;;;5050428;28;20223;-46
2022/10/30 11:11:43;;;;;;;12.43;4.43;;;;;;;;;;5050973;28;20205;-47
2022/10/30 11:14:12;;;;;;;15.47;4.63;;;;;;;;;;5050435;28;20196;-46
2022/10/30 11:16:45;;;;;;;8.87;4.27;;;;;;;;;;5053157;28;20646;-46
2022/10/30 11:19:11;;;;;;;11.50;4.30;;;;;;;;;;5052323;28;20233;-46
2022/10/30 11:21:38;;;;;;;12.77;4.53;;;;;;;;;;5052856;28;20238;-46
2022/10/30 11:24:34;;;;;;;8.53;4.10;;;;;;;;;;5054070;28;20203;-47
2022/10/30 11:27:17;;;;;;;10.90;4.53;;;;;;;;;;5054207;28;20574;-47
2022/10/30 11:29:47;;;;;;;11.40;4.70;;;;;;;;;;5049224;28;20215;-46
2022/10/30 11:32:21;;;;;;;13.77;5.28;;;;;;;;;;5048088;28;20949;-46
2022/10/30 11:34:59;;;;;;;14.00;4.50;;;;;;;;;;5050267;28;20200;-46
2022/10/30 11:37:29;;;;;;;8.60;4.63;;;;;;;;;;5050286;28;20202;-46
2022/10/30 11:40:04;;;;;;;10.97;4.70;;;;;;;;;;5044388;28;20919;-47
2022/10/30 11:42:30;;;;;;;10.33;4.67;;;;;;;;;;5044318;28;20295;-46
2022/10/30 11:44:56;;;;;;;13.27;4.57;;;;;;;;;;5044892;28;20288;-47
2022/10/30 11:47:26;;;;;;;12.57;4.60;;;;;;;;;;5050206;28;20201;-46
2022/10/30 11:49:53;;;;;;;9.90;3.97;;;;;;;;;;5048324;28;20660;-46
2022/10/30 11:52:22;;;;;;;10.63;4.73;;;;;;;;;;5044647;28;20237;-45
2022/10/30 11:54:50;;;;;;;12.57;4.53;;;;;;;;;;5046513;28;20197;-46
2022/10/30 11:57:22;;;;;;;13.30;4.00;;;;;;;;;;5045522;28;20564;-46
2022/10/30 11:59:50;;;;;;;9.73;4.47;;;;;;;;;;5049568;28;20233;-46
2022/10/30 12:02:20;;;;;;;12.30;4.40;;;;;;;;;;5048074;28;20701;-45
2022/10/30 12:04:46;;;;;;;9.33;5.10;;;;;;;;;;5046493;28;20195;-46
2022/10/30 12:07:19;;;;;;;8.00;4.20;;;;;;;;;;5044733;28;20229;-45
2022/10/30 12:09:46;;;;;;;9.10;4.33;;;;;;;;;;5046810;28;20203;-47
2022/10/30 12:12:18;;;;;;;9.03;3.97;;;;;;;;;;5044677;28;20202;-46
2022/10/30 12:14:45;;;;;;;10.77;4.13;;;;;;;;;;5049709;28;20248;-47
2022/10/30 12:17:14;;;;;;;14.03;4.50;;;;;;;;;;5046091;28;20213;-46
2022/10/30 12:19:44;;;;;;;11.83;4.30;;;;;;;;;;5046326;28;20235;-46
2022/10/30 12:22:10;;;;;;;11.50;4.10;;;;;;;;;;5044472;28;20206;-46
2022/10/30 12:24:37;;;;;;;12.07;4.87;;;;;;;;;;5044071;28;20204;-46
2022/10/30 12:27:04;;;;;;;9.83;4.23;;;;;;;;;;5047241;28;20290;-45
2022/10/30 12:29:37;;;;;;;10.83;4.37;;;;;;;;;;5049472;28;20282;-45
2022/10/30 12:32:07;;;;;;;10.73;4.13;;;;;;;;;;5044276;28;20288;-47
2022/10/30 12:34:37;;;;;;;12.63;4.47;;;;;;;;;;5044240;28;20216;-46
2022/10/30 12:37:07;;;;;;;8.83;3.87;;;;;;;;;;5044292;28;20576;-46
2022/10/30 12:39:42;;;;;;;12.37;4.60;;;;;;;;;;5041987;28;20570;-46
2022/10/30 12:42:11;;;;;;;12.60;4.53;;;;;;;;;;5047103;28;20280;-46
2022/10/30 12:44:38;;;;;;;12.67;4.30;;;;;;;;;;5049140;28;20203;-46
2022/10/30 12:47:08;;;;;;;14.50;4.90;;;;;;;;;;5046501;28;20288;-46
2022/10/30 12:49:39;;;;;;;11.83;4.00;;;;;;;;;;5043833;28;20207;-46
2022/10/30 12:52:08;;;;;;;9.27;4.23;;;;;;;;;;5043707;28;20237;-48
2022/10/30 12:54:39;;;;;;;11.13;4.30;;;;;;;;;;5043379;28;20247;-45
2022/10/30 12:57:08;;;;;;;8.57;4.57;;;;;;;;;;5047230;28;20304;-46
2022/10/30 12:59:38;;;;;;;12.13;4.33;;;;;;;;;;5048720;28;20677;-47
2022/10/30 13:02:13;;;;;;;12.03;4.50;;;;;;;;;;5045385;28;20244;-46
2022/10/30 13:04:41;;;;;;;8.87;4.63;;;;;;;;;;5043456;28;20222;-46
2022/10/30 13:07:10;;;;;;;6.97;3.90;;;;;;;;;;5043661;28;20201;-48
2022/10/30 13:09:38;;;;;;;11.30;3.90;;;;;;;;;;5043158;28;20270;-47
2022/10/30 13:12:07;;;;;;;7.93;3.57;;;;;;;;;;5048687;28;20206;-46
2022/10/30 13:14:35;;;;;;;14.50;4.50;;;;;;;;;;5048545;28;20206;-47
2022/10/30 13:17:01;;;;;;;9.73;4.40;;;;;;;;;;5043324;28;20252;-48
2022/10/30 13:19:29;;;;;;;13.07;4.50;;;;;;;;;;5044891;28;20281;-47
2022/10/30 13:21:57;;;;;;;12.73;4.70;;;;;;;;;;5046578;28;20232;-48
2022/10/30 13:24:25;;;;;;;11.87;4.40;;;;;;;;;;5046696;28;20561;-45
2022/10/30 13:26:54;;;;;;;10.63;3.97;;;;;;;;;;5043153;28;20196;-45
2022/10/30 13:29:24;;;;;;;13.93;4.77;;;;;;;;;;5042956;28;20250;-47
2022/10/30 13:31:55;;;;;;;11.27;4.80;;;;;;;;;;5044903;28;20197;-46
2022/10/30 13:34:26;;;;;;;9.57;4.50;;;;;;;;;;5048045;28;20650;-46
2022/10/30 13:36:57;;;;;;;11.70;4.43;;;;;;;;;;5044885;28;20197;-46
2022/10/30 13:39:28;;;;;;;9.57;4.07;;;;;;;;;;5042018;28;20262;-45
2022/10/30 13:42:00;;;;;;;10.57;4.40;;;;;;;;;;5042995;28;20254;-45
2022/10/30 13:44:32;;;;;;;10.07;4.03;;;;;;;;;;5042600;28;20614;-46
2022/10/30 13:47:03;;;;;;;11.73;4.53;;;;;;;;;;5042859;28;20684;-46
2022/10/30 13:49:35;;;;;;;11.40;4.77;;;;;;;;;;5044053;28;20200;-46
2022/10/30 13:52:06;;;;;;;13.63;4.77;;;;;;;;;;5043882;28;20242;-46
2022/10/30 13:54:33;;;;;;;15.03;10.73;;;;;;;;;;5045033;28;20250;-47
2022/10/30 13:57:03;;;;;;;9.40;5.40;;;;;;;;;;5043406;28;20200;-46
2022/10/30 13:59:50;;;;;;;;;;;;;;;;;;;;;
2022/10/30 14:02:25;;;;;;;14.40;5.27;;;;;;;;;;5043758;28;20196;-47
2022/10/30 14:04:53;;;;;;;13.53;4.40;;;;;;;;;;5043176;28;20200;-46
2022/10/30 14:07:26;;;;;;;14.13;4.57;;;;;;;;;;5044673;28;20192;-46
2022/10/30 14:09:55;;;;;;;11.87;4.07;;;;;;;;;;5043292;28;20729;-46
2022/10/30 14:12:40;;;;;;;8.23;3.80;;;;;;;;;;5046366;28;20238;-46
2022/10/30 14:15:14;;;;;;;10.13;4.30;;;;;;;;;;5048382;28;20198;-46
2022/10/30 14:18:10;;;;;;;8.60;4.40;;;;;;;;;;5046395;28;20218;-45
2022/10/30 14:20:36;;;;;;;12.33;3.97;;;;;;;;;;5048047;28;20683;-46
2022/10/30 14:23:07;;;;;;;12.87;4.23;;;;;;;;;;5046422;28;20206;-46
2022/10/30 14:25:34;;;;;;;15.00;4.87;;;;;;;;;;5047987;28;20220;-45
2022/10/30 14:28:00;;;;;;;11.27;4.20;;;;;;;;;;5046031;28;20203;-47
2022/10/30 14:30:27;;;;;;;11.17;4.30;;;;;;;;;;5046950;28;20257;-46
2022/10/30 14:32:53;;;;;;;8.77;4.43;;;;;;;;;;5043808;28;20207;-46
2022/10/30 14:35:31;;;;;;;17.97;11.50;;;;;;;;;;5043393;28;20222;-46
2022/10/30 14:38:14;;;;;;;17.70;5.40;;;;;;;;;;5042052;28;20205;-46
2022/10/30 14:40:45;;;;;;;10.37;4.77;;;;;;;;;;5045512;28;20228;-46